createdAt,value
2023-06-25T00:01:41.228Z,86.81
2023-06-25T00:04:07.616Z,86.80
2023-06-25T00:06:33.777Z,86.73
2023-06-25T00:08:59.917Z,86.70
2023-06-25T00:11:26.084Z,86.78
2023-06-25T00:13:54.231Z,86.70
2023-06-25T00:16:20.792Z,86.66
2023-06-25T00:18:47.764Z,86.66
2023-06-25T00:21:14.076Z,86.49
2023-06-25T00:23:40.236Z,86.44
2023-06-25T00:26:06.432Z,86.39
2023-06-25T00:28:32.519Z,86.29
2023-06-25T00:30:58.826Z,86.20
2023-06-25T00:33:25.041Z,86.21
2023-06-25T00:35:51.154Z,86.07
2023-06-25T00:38:17.355Z,85.96
2023-06-25T00:40:43.672Z,85.92
2023-06-25T00:43:10.073Z,86.08
2023-06-25T00:45:36.310Z,86.16
2023-06-25T00:48:02.574Z,86.25
2023-06-25T00:50:28.756Z,86.41
2023-06-25T00:52:57.489Z,86.57
2023-06-25T00:55:23.697Z,86.50
2023-06-25T00:57:52.400Z,86.51
2023-06-25T01:00:18.750Z,86.52
2023-06-25T01:02:46.881Z,86.49
2023-06-25T01:05:13.285Z,86.51
2023-06-25T01:07:39.443Z,86.60
2023-06-25T01:10:05.718Z,86.59
2023-06-25T01:12:32.440Z,86.39
2023-06-25T01:14:59.804Z,86.44
2023-06-25T01:17:26.983Z,86.41
2023-06-25T01:19:53.203Z,86.44
2023-06-25T01:22:19.430Z,86.50
2023-06-25T01:24:45.611Z,86.48
2023-06-25T01:27:11.805Z,86.37
2023-06-25T01:29:38.643Z,86.36
2023-06-25T01:32:06.696Z,86.35
2023-06-25T01:34:33.007Z,86.38
2023-06-25T01:36:59.132Z,86.22
2023-06-25T01:39:25.870Z,86.10
2023-06-25T01:41:52.019Z,86.05
2023-06-25T01:44:19.969Z,85.90
2023-06-25T01:46:47.749Z,85.77
2023-06-25T01:49:23.045Z,85.81
2023-06-25T01:51:57.024Z,86.03
2023-06-25T01:54:23.352Z,86.11
2023-06-25T01:56:49.504Z,85.95
2023-06-25T01:59:15.775Z,85.86
2023-06-25T02:01:42.037Z,85.91
2023-06-25T02:04:08.437Z,85.91
2023-06-25T02:06:34.798Z,85.81
2023-06-25T02:09:00.961Z,85.66
2023-06-25T02:11:27.166Z,85.57
2023-06-25T02:13:53.427Z,85.47
2023-06-25T02:16:19.668Z,85.43
2023-06-25T02:18:45.901Z,85.44
2023-06-25T02:21:12.287Z,85.48
2023-06-25T02:23:38.447Z,85.53
2023-06-25T02:26:05.048Z,85.50
2023-06-25T02:28:31.235Z,85.44
2023-06-25T02:30:57.443Z,85.52
2023-06-25T02:33:23.613Z,85.52
2023-06-25T02:35:49.809Z,85.57
2023-06-25T02:38:15.986Z,85.57
2023-06-25T02:40:42.114Z,85.51
2023-06-25T02:43:08.304Z,85.47
2023-06-25T02:45:34.655Z,85.40
2023-06-25T02:48:00.963Z,85.46
2023-06-25T02:50:27.237Z,85.57
2023-06-25T02:52:53.403Z,85.62
2023-06-25T02:55:19.868Z,85.47
2023-06-25T02:57:46.060Z,85.47
2023-06-25T03:00:12.306Z,85.65
2023-06-25T03:02:38.619Z,85.84
2023-06-25T03:05:04.939Z,86.05
2023-06-25T03:07:31.053Z,86.19
2023-06-25T03:09:57.498Z,86.12
2023-06-25T03:12:23.778Z,86.09
2023-06-25T03:14:50.024Z,86.04
2023-06-25T03:17:16.314Z,86.10
2023-06-25T03:19:42.556Z,86.09
2023-06-25T03:22:08.697Z,86.01
2023-06-25T03:24:35.669Z,86.02
2023-06-25T03:27:02.512Z,86.00
2023-06-25T03:29:28.599Z,86.03
2023-06-25T03:31:54.800Z,86.00
2023-06-25T03:34:20.936Z,85.90
2023-06-25T03:36:47.066Z,85.71
2023-06-25T03:39:13.350Z,85.71
2023-06-25T03:41:39.518Z,85.74
2023-06-25T03:44:05.665Z,85.69
2023-06-25T03:46:31.842Z,85.69
2023-06-25T03:48:58.022Z,85.54
2023-06-25T03:51:24.161Z,85.43
2023-06-25T03:53:50.330Z,85.48
2023-06-25T03:56:16.680Z,85.16
2023-06-25T03:58:42.819Z,84.79
2023-06-25T04:01:09.033Z,84.34
2023-06-25T04:03:35.251Z,83.91
2023-06-25T04:06:01.393Z,83.73
2023-06-25T04:08:27.632Z,83.40
2023-06-25T04:10:53.882Z,83.05
2023-06-25T04:13:20.040Z,82.50
2023-06-25T04:15:46.487Z,82.14
2023-06-25T04:18:12.652Z,81.79
2023-06-25T04:20:38.781Z,81.73
2023-06-25T04:23:05.182Z,81.29
2023-06-25T04:25:31.643Z,80.78
2023-06-25T04:27:58.242Z,80.47
2023-06-25T04:30:24.510Z,79.38
2023-06-25T04:32:51.012Z,78.99
2023-06-25T04:35:17.301Z,79.90
2023-06-25T04:37:43.436Z,80.58
2023-06-25T04:40:09.680Z,81.14
2023-06-25T04:42:35.812Z,80.81
2023-06-25T04:45:02.000Z,80.58
2023-06-25T04:47:28.391Z,80.33
2023-06-25T04:49:54.545Z,80.06
2023-06-25T04:52:20.745Z,79.86
2023-06-25T04:54:46.938Z,79.72
2023-06-25T04:57:13.292Z,79.56
2023-06-25T04:59:39.419Z,79.24
2023-06-25T05:02:05.630Z,78.42
2023-06-25T05:04:31.781Z,78.12
2023-06-25T05:06:57.893Z,77.75
2023-06-25T05:09:24.568Z,78.89
2023-06-25T05:11:50.807Z,79.59
2023-06-25T05:14:17.539Z,79.71
2023-06-25T05:16:43.676Z,79.92
2023-06-25T05:19:09.780Z,80.24
2023-06-25T05:21:36.338Z,80.44
2023-06-25T05:24:03.814Z,80.24
2023-06-25T05:26:30.020Z,79.73
2023-06-25T05:28:56.677Z,79.81
2023-06-25T05:31:23.003Z,79.95
2023-06-25T05:33:49.207Z,79.87
2023-06-25T05:36:15.483Z,79.61
2023-06-25T05:38:41.759Z,78.86
2023-06-25T05:41:07.961Z,78.51
2023-06-25T05:43:34.118Z,78.59
2023-06-25T05:46:00.262Z,78.83
2023-06-25T05:48:26.370Z,79.08
2023-06-25T05:50:52.485Z,78.80
2023-06-25T05:53:18.631Z,78.66
2023-06-25T05:55:44.927Z,77.85
2023-06-25T05:58:11.608Z,77.84
2023-06-25T06:00:37.759Z,77.74
2023-06-25T06:03:03.921Z,77.69
2023-06-25T06:05:30.384Z,77.79
2023-06-25T06:07:56.566Z,77.75
2023-06-25T06:10:22.701Z,78.15
2023-06-25T06:12:48.877Z,78.43
2023-06-25T06:15:16.430Z,78.11
2023-06-25T06:17:42.710Z,78.25
2023-06-25T06:20:09.141Z,78.02
2023-06-25T06:22:35.285Z,77.03
2023-06-25T06:25:01.422Z,76.63
2023-06-25T06:27:28.244Z,76.87
2023-06-25T06:29:54.433Z,76.73
2023-06-25T06:32:20.613Z,76.31
2023-06-25T06:34:46.816Z,76.29
2023-06-25T06:37:12.993Z,76.58
2023-06-25T06:39:39.112Z,76.24
2023-06-25T06:42:05.331Z,76.56
2023-06-25T06:44:31.517Z,76.46
2023-06-25T06:46:57.700Z,76.03
2023-06-25T06:49:24.160Z,75.66
2023-06-25T06:51:50.409Z,76.14
2023-06-25T06:54:16.538Z,75.81
2023-06-25T06:56:42.769Z,75.32
2023-06-25T06:59:09.036Z,75.47
2023-06-25T07:01:35.304Z,76.17
2023-06-25T07:04:01.531Z,76.57
2023-06-25T07:06:27.713Z,75.34
2023-06-25T07:08:53.843Z,75.68
2023-06-25T07:11:20.357Z,75.24
2023-06-25T07:13:46.651Z,75.39
2023-06-25T07:16:12.886Z,75.20
2023-06-25T07:18:39.079Z,75.28
2023-06-25T07:21:06.255Z,75.80
2023-06-25T07:23:32.346Z,75.66
2023-06-25T07:25:58.532Z,75.66
2023-06-25T07:28:24.891Z,75.82
2023-06-25T07:30:51.090Z,75.72
2023-06-25T07:33:17.398Z,74.98
2023-06-25T07:35:43.677Z,74.60
2023-06-25T07:38:10.138Z,74.40
2023-06-25T07:40:36.501Z,74.81
2023-06-25T07:43:03.152Z,73.96
2023-06-25T07:45:29.480Z,73.28
2023-06-25T07:47:55.636Z,74.18
2023-06-25T07:50:21.791Z,72.52
2023-06-25T07:52:48.127Z,72.44
2023-06-25T07:55:14.278Z,72.53
2023-06-25T07:57:40.430Z,72.64
2023-06-25T08:00:06.687Z,72.28
2023-06-25T08:02:32.888Z,71.62
2023-06-25T08:04:59.240Z,71.83
2023-06-25T08:07:25.625Z,72.35
2023-06-25T08:09:54.376Z,71.86
2023-06-25T08:12:25.787Z,72.09
2023-06-25T08:14:52.034Z,72.01
2023-06-25T08:17:18.184Z,71.61
2023-06-25T08:19:44.452Z,71.10
2023-06-25T08:22:10.723Z,69.67
2023-06-25T08:24:36.880Z,69.42
2023-06-25T08:27:03.127Z,69.28
2023-06-25T08:29:30.180Z,66.36
2023-06-25T08:31:56.349Z,66.88
2023-06-25T08:34:22.753Z,66.06
2023-06-25T08:36:48.995Z,66.61
2023-06-25T08:39:15.158Z,66.87
2023-06-25T08:41:41.428Z,67.44
2023-06-25T08:44:07.690Z,67.50
2023-06-25T08:46:34.010Z,65.50
2023-06-25T08:49:00.443Z,63.29
2023-06-25T08:51:26.663Z,62.28
2023-06-25T08:53:52.954Z,64.91
2023-06-25T08:56:19.564Z,64.95
2023-06-25T08:58:45.695Z,64.31
2023-06-25T09:01:14.885Z,63.93
2023-06-25T09:03:42.155Z,63.18
2023-06-25T09:06:08.306Z,61.64
2023-06-25T09:08:34.576Z,61.42
2023-06-25T09:11:00.777Z,61.30
2023-06-25T09:13:26.946Z,60.48
2023-06-25T09:15:53.582Z,59.16
2023-06-25T09:18:20.725Z,59.74
2023-06-25T09:20:47.879Z,59.90
2023-06-25T09:23:14.438Z,59.48
2023-06-25T09:25:40.679Z,59.40
2023-06-25T09:28:06.966Z,60.10
2023-06-25T09:30:33.131Z,60.57
2023-06-25T09:32:59.425Z,62.27
2023-06-25T09:35:26.039Z,60.65
2023-06-25T09:37:52.594Z,60.66
2023-06-25T09:40:18.765Z,61.19
2023-06-25T09:42:47.726Z,59.71
2023-06-25T09:45:14.541Z,60.20
2023-06-25T09:47:40.764Z,60.78
2023-06-25T09:50:06.929Z,58.18
2023-06-25T09:52:33.222Z,58.32
2023-06-25T09:54:59.510Z,57.80
2023-06-25T09:57:26.493Z,58.25
2023-06-25T09:59:52.622Z,59.77
2023-06-25T10:02:19.280Z,58.49
2023-06-25T10:04:45.711Z,59.45
2023-06-25T10:07:12.138Z,56.50
2023-06-25T10:09:38.371Z,54.71
2023-06-25T10:12:04.576Z,56.92
2023-06-25T10:14:30.846Z,58.01
2023-06-25T10:16:57.120Z,56.04
2023-06-25T10:19:23.415Z,55.21
2023-06-25T10:21:50.033Z,56.18
2023-06-25T10:24:16.198Z,54.19
2023-06-25T10:26:42.383Z,54.76
2023-06-25T10:29:08.621Z,55.79
2023-06-25T10:31:34.957Z,57.08
2023-06-25T10:34:01.152Z,59.43
2023-06-25T10:36:27.382Z,58.54
2023-06-25T10:38:53.572Z,57.23
2023-06-25T10:41:20.114Z,57.22
2023-06-25T10:43:46.465Z,57.29
2023-06-25T10:46:12.627Z,56.24
2023-06-25T10:48:38.797Z,57.94
2023-06-25T10:51:05.192Z,58.22
2023-06-25T10:53:31.421Z,58.23
2023-06-25T10:55:57.594Z,56.90
2023-06-25T10:58:23.918Z,55.65
2023-06-25T11:00:50.098Z,54.82
2023-06-25T11:03:16.604Z,55.14
2023-06-25T11:05:42.928Z,52.14
2023-06-25T11:08:09.139Z,53.85
2023-06-25T11:10:35.246Z,53.47
2023-06-25T11:13:02.329Z,53.81
2023-06-25T11:15:28.514Z,52.33
2023-06-25T11:17:54.747Z,54.70
2023-06-25T11:20:20.884Z,55.51
2023-06-25T11:22:47.021Z,54.42
2023-06-25T11:25:13.744Z,51.88
2023-06-25T11:27:39.936Z,53.05
2023-06-25T11:30:07.447Z,54.30
2023-06-25T11:32:33.664Z,52.71
2023-06-25T11:34:59.993Z,51.99
2023-06-25T11:37:28.398Z,52.16
2023-06-25T11:39:54.680Z,50.22
2023-06-25T11:42:20.866Z,52.38
2023-06-25T11:44:47.248Z,50.10
2023-06-25T11:47:13.369Z,50.78
2023-06-25T11:49:39.720Z,50.46
2023-06-25T11:52:06.023Z,50.57
2023-06-25T11:54:32.145Z,48.88
2023-06-25T11:56:58.288Z,48.71
2023-06-25T11:59:24.494Z,50.56
2023-06-25T12:01:50.759Z,51.71
2023-06-25T12:04:18.445Z,50.86
2023-06-25T12:06:44.717Z,50.29
2023-06-25T12:09:10.885Z,51.11
2023-06-25T12:11:38.110Z,51.56
2023-06-25T12:14:04.296Z,50.34
2023-06-25T12:16:32.332Z,49.64
2023-06-25T12:18:58.722Z,48.33
2023-06-25T12:21:25.537Z,46.12
2023-06-25T12:23:51.722Z,45.50
2023-06-25T12:26:17.939Z,44.86
2023-06-25T12:28:44.152Z,46.43
2023-06-25T12:31:10.360Z,46.15
2023-06-25T12:33:36.474Z,45.39
2023-06-25T12:36:02.654Z,46.71
2023-06-25T12:38:28.838Z,47.58
2023-06-25T12:40:57.318Z,47.11
2023-06-25T12:43:23.504Z,47.24
2023-06-25T12:45:51.111Z,47.40
2023-06-25T12:48:17.413Z,47.43
2023-06-25T12:50:43.664Z,46.59
2023-06-25T12:53:09.774Z,47.22
2023-06-25T12:55:36.233Z,47.46
2023-06-25T12:58:02.627Z,47.21
2023-06-25T13:00:43.064Z,46.61
2023-06-25T13:03:15.266Z,47.18
2023-06-25T13:05:41.690Z,48.66
2023-06-25T13:08:07.805Z,51.14
2023-06-25T13:10:33.970Z,52.86
2023-06-25T13:13:00.656Z,53.51
2023-06-25T13:15:26.838Z,54.17
2023-06-25T13:17:53.169Z,54.24
2023-06-25T13:20:19.309Z,54.44
2023-06-25T13:22:45.419Z,55.31
2023-06-25T13:25:11.638Z,55.74
2023-06-25T13:27:37.854Z,53.84
2023-06-25T13:30:04.140Z,53.74
2023-06-25T13:32:30.391Z,53.42
2023-06-25T13:34:56.693Z,52.46
2023-06-25T13:37:22.824Z,52.44
2023-06-25T13:39:49.033Z,52.37
2023-06-25T13:42:15.305Z,53.29
2023-06-25T13:44:41.547Z,52.99
2023-06-25T13:47:08.221Z,53.63
2023-06-25T13:49:34.355Z,53.52
2023-06-25T13:52:00.876Z,53.74
2023-06-25T13:54:27.117Z,53.89
2023-06-25T13:56:55.266Z,54.34
2023-06-25T13:59:23.141Z,53.94
2023-06-25T14:01:49.249Z,53.54
2023-06-25T14:04:15.429Z,52.05
2023-06-25T14:06:41.866Z,51.98
2023-06-25T14:09:08.242Z,52.15
2023-06-25T14:11:34.791Z,52.82
2023-06-25T14:14:00.919Z,51.69
2023-06-25T14:16:32.258Z,51.98
2023-06-25T14:18:58.380Z,49.78
2023-06-25T14:21:24.506Z,48.36
2023-06-25T14:23:50.668Z,50.30
2023-06-25T14:26:16.781Z,50.85
2023-06-25T14:28:42.978Z,51.35
2023-06-25T14:31:09.946Z,52.44
2023-06-25T14:33:36.311Z,52.43
2023-06-25T14:36:02.610Z,52.87
2023-06-25T14:38:29.642Z,53.30
2023-06-25T14:40:55.768Z,53.91
2023-06-25T14:43:22.028Z,53.81
2023-06-25T14:45:48.250Z,54.37
2023-06-25T14:48:14.473Z,55.10
2023-06-25T14:50:40.625Z,55.52
2023-06-25T14:53:06.776Z,56.04
2023-06-25T14:55:39.199Z,56.57
2023-06-25T14:58:11.670Z,56.43
2023-06-25T15:00:37.840Z,57.24
2023-06-25T15:03:04.148Z,57.37
2023-06-25T15:05:30.529Z,57.82
2023-06-25T15:07:56.807Z,56.97
2023-06-25T15:10:22.889Z,56.77
2023-06-25T15:12:49.086Z,56.03
2023-06-25T15:15:15.253Z,56.14
2023-06-25T15:17:41.554Z,55.25
2023-06-25T15:20:07.978Z,55.54
2023-06-25T15:22:34.127Z,54.62
2023-06-25T15:25:00.277Z,53.89
2023-06-25T15:27:26.449Z,54.60
2023-06-25T15:29:52.647Z,54.95
2023-06-25T15:32:18.718Z,55.07
2023-06-25T15:34:44.904Z,55.87
2023-06-25T15:37:11.037Z,55.91
2023-06-25T15:39:37.156Z,56.34
2023-06-25T15:42:03.338Z,56.32
2023-06-25T15:44:29.555Z,56.73
2023-06-25T15:46:55.829Z,56.41
2023-06-25T15:49:21.967Z,56.78
2023-06-25T15:51:48.415Z,56.76
2023-06-25T15:54:24.995Z,56.78
2023-06-25T15:56:52.600Z,57.07
2023-06-25T15:59:19.250Z,57.74
2023-06-25T16:01:45.921Z,58.18
2023-06-25T16:04:12.217Z,58.27
2023-06-25T16:06:38.362Z,58.71
2023-06-25T16:09:04.925Z,58.76
2023-06-25T16:11:31.272Z,58.90
2023-06-25T16:13:57.429Z,58.71
2023-06-25T16:16:23.673Z,59.04
2023-06-25T16:18:52.902Z,59.13
2023-06-25T16:21:28.322Z,59.38
2023-06-25T16:23:54.442Z,59.71
2023-06-25T16:26:20.531Z,59.56
2023-06-25T16:28:46.723Z,59.87
2023-06-25T16:31:12.923Z,60.00
2023-06-25T16:33:39.090Z,60.03
2023-06-25T16:36:05.211Z,60.01
2023-06-25T16:38:31.640Z,60.18
2023-06-25T16:40:58.087Z,59.76
2023-06-25T16:43:24.232Z,59.99
2023-06-25T16:45:50.360Z,59.56
2023-06-25T16:48:16.585Z,59.49
2023-06-25T16:50:42.691Z,59.39
2023-06-25T16:53:08.924Z,59.51
2023-06-25T16:55:35.249Z,59.50
2023-06-25T16:58:01.687Z,59.11
2023-06-25T17:00:27.818Z,58.84
2023-06-25T17:02:54.123Z,58.95
2023-06-25T17:05:20.598Z,59.32
2023-06-25T17:07:46.886Z,59.13
2023-06-25T17:10:13.953Z,59.10
2023-06-25T17:12:40.803Z,59.27
2023-06-25T17:15:07.010Z,59.14
2023-06-25T17:17:33.201Z,59.12
2023-06-25T17:19:59.347Z,59.60
2023-06-25T17:22:25.551Z,59.93
2023-06-25T17:24:51.775Z,60.34
2023-06-25T17:27:17.890Z,60.39
2023-06-25T17:29:44.080Z,59.88
2023-06-25T17:32:10.331Z,59.66
2023-06-25T17:34:36.489Z,59.73
2023-06-25T17:37:02.696Z,59.48
2023-06-25T17:39:29.990Z,59.99
2023-06-25T17:41:56.170Z,60.06
2023-06-25T17:44:22.328Z,60.34
2023-06-25T17:46:48.478Z,60.13
2023-06-25T17:49:14.672Z,59.98
2023-06-25T17:51:40.892Z,59.79
2023-06-25T17:54:07.309Z,60.14
2023-06-25T17:56:33.532Z,60.12
2023-06-25T17:58:59.781Z,60.73
2023-06-25T18:01:26.068Z,60.42
2023-06-25T18:03:52.382Z,60.34
2023-06-25T18:06:18.823Z,60.50
2023-06-25T18:08:45.022Z,60.46
2023-06-25T18:11:12.260Z,60.91
2023-06-25T18:13:38.773Z,61.09
2023-06-25T18:16:04.927Z,61.40
2023-06-25T18:18:31.048Z,61.38
2023-06-25T18:20:57.217Z,61.65
2023-06-25T18:23:23.377Z,61.55
2023-06-25T18:25:49.629Z,61.58
2023-06-25T18:28:15.834Z,62.10
2023-06-25T18:30:42.179Z,62.52
2023-06-25T18:33:09.768Z,62.72
2023-06-25T18:35:37.103Z,62.90
2023-06-25T18:38:03.245Z,62.80
2023-06-25T18:40:29.440Z,62.75
2023-06-25T18:42:55.662Z,62.83
2023-06-25T18:45:21.822Z,62.83
2023-06-25T18:47:48.052Z,62.76
2023-06-25T18:50:17.511Z,62.62
2023-06-25T18:52:43.883Z,62.55
2023-06-25T18:55:10.315Z,62.40
2023-06-25T18:57:36.475Z,62.38
2023-06-25T19:00:05.696Z,62.47
2023-06-25T19:02:35.858Z,62.46
2023-06-25T19:05:02.355Z,62.36
2023-06-25T19:07:28.624Z,62.29
2023-06-25T19:09:55.458Z,62.40
2023-06-25T19:12:23.798Z,61.95
2023-06-25T19:14:49.916Z,62.33
2023-06-25T19:17:16.120Z,62.67
2023-06-25T19:19:42.296Z,62.94
2023-06-25T19:22:08.411Z,62.49
2023-06-25T19:24:34.614Z,62.28
2023-06-25T19:27:00.856Z,62.43
2023-06-25T19:29:27.146Z,62.60
2023-06-25T19:31:53.407Z,62.62
2023-06-25T19:34:20.053Z,63.12
2023-06-25T19:36:46.330Z,62.82
2023-06-25T19:39:12.679Z,62.81
2023-06-25T19:41:40.142Z,62.98
2023-06-25T19:44:06.327Z,63.10
2023-06-25T19:49:14.564Z,62.66
2023-06-25T19:51:40.758Z,61.98
2023-06-25T19:54:06.961Z,61.77
2023-06-25T19:56:33.121Z,62.00
2023-06-25T19:58:59.282Z,61.75
2023-06-25T20:01:25.447Z,61.58
2023-06-25T20:03:51.766Z,61.72
2023-06-25T20:06:17.894Z,62.08
2023-06-25T20:08:44.126Z,61.69
2023-06-25T20:11:10.596Z,61.70
2023-06-25T20:13:36.896Z,62.24
2023-06-25T20:16:03.078Z,62.44
2023-06-25T20:18:29.263Z,62.34
2023-06-25T20:20:55.416Z,62.32
2023-06-25T20:23:21.533Z,62.44
2023-06-25T20:25:47.814Z,62.72
2023-06-25T20:28:14.172Z,62.66
2023-06-25T20:30:40.749Z,62.47
2023-06-25T20:33:07.173Z,62.36
2023-06-25T20:35:35.420Z,62.52
2023-06-25T20:38:04.262Z,62.62
2023-06-25T20:40:30.630Z,63.04
2023-06-25T20:42:56.928Z,63.41
2023-06-25T20:45:23.204Z,63.68
2023-06-25T20:47:49.571Z,63.86
2023-06-25T20:50:15.838Z,64.02
2023-06-25T20:52:41.997Z,64.10
2023-06-25T20:55:10.194Z,64.18
2023-06-25T20:57:37.600Z,64.21
2023-06-25T21:00:05.306Z,64.41
2023-06-25T21:02:31.634Z,64.73
2023-06-25T21:04:58.147Z,64.90
2023-06-25T21:07:24.317Z,64.83
2023-06-25T21:09:50.563Z,64.44
2023-06-25T21:12:16.765Z,64.24
2023-06-25T21:14:43.014Z,63.87
2023-06-25T21:17:09.350Z,63.94
2023-06-25T21:19:35.511Z,63.94
2023-06-25T21:22:01.648Z,64.00
2023-06-25T21:24:27.940Z,64.07
2023-06-25T21:26:54.118Z,64.09
2023-06-25T21:29:20.243Z,64.49
2023-06-25T21:31:46.465Z,64.74
2023-06-25T21:34:12.734Z,64.98
2023-06-25T21:36:39.712Z,65.01
2023-06-25T21:39:07.276Z,65.04
2023-06-25T21:41:33.616Z,65.17
2023-06-25T21:43:59.720Z,65.21
2023-06-25T21:46:25.992Z,65.18
2023-06-25T21:48:52.212Z,65.23
2023-06-25T21:51:18.378Z,65.22
2023-06-25T21:53:44.523Z,65.53
2023-06-25T21:56:10.684Z,65.59
2023-06-25T21:58:36.769Z,65.75
2023-06-25T22:01:03.000Z,65.89
2023-06-25T22:03:29.322Z,66.00
2023-06-25T22:05:55.867Z,66.18
2023-06-25T22:08:22.010Z,66.28
2023-06-25T22:10:48.155Z,66.28
2023-06-25T22:13:17.803Z,66.39
2023-06-25T22:15:44.756Z,66.55
2023-06-25T22:18:10.937Z,66.65
2023-06-25T22:20:37.531Z,66.76
2023-06-25T22:23:03.914Z,66.94
2023-06-25T22:25:30.176Z,67.02
2023-06-25T22:27:56.426Z,67.24
2023-06-25T22:30:22.709Z,67.49
2023-06-25T22:32:49.047Z,67.52
2023-06-25T22:35:15.449Z,67.44
2023-06-25T22:37:42.010Z,67.55
2023-06-25T22:40:08.955Z,67.72
2023-06-25T22:42:35.352Z,68.07
2023-06-25T22:45:01.596Z,68.31
2023-06-25T22:47:29.543Z,68.39
2023-06-25T22:49:57.338Z,68.74
2023-06-25T22:52:23.799Z,69.08
2023-06-25T22:54:51.321Z,69.26
2023-06-25T22:57:17.851Z,69.42
2023-06-25T22:59:44.030Z,69.79
2023-06-25T23:02:10.259Z,70.01
2023-06-25T23:04:36.590Z,69.98
2023-06-25T23:07:03.163Z,70.15
2023-06-25T23:09:29.442Z,70.46
2023-06-25T23:11:55.672Z,70.95
2023-06-25T23:14:21.901Z,71.42
2023-06-25T23:16:49.040Z,71.97
2023-06-25T23:19:17.411Z,72.22
2023-06-25T23:21:46.032Z,72.21
2023-06-25T23:24:12.212Z,72.11
2023-06-25T23:26:45.398Z,72.04
2023-06-25T23:29:13.106Z,72.11
2023-06-25T23:31:39.373Z,72.10
2023-06-25T23:34:05.558Z,72.03
2023-06-25T23:36:31.697Z,72.16
2023-06-25T23:38:57.927Z,72.46
2023-06-25T23:41:24.127Z,72.51
2023-06-25T23:43:50.322Z,72.53
2023-06-25T23:46:16.557Z,72.69
2023-06-25T23:48:42.702Z,72.84
2023-06-25T23:51:08.907Z,73.08
2023-06-25T23:53:35.097Z,73.17
2023-06-25T23:56:01.261Z,73.09
2023-06-25T23:58:27.496Z,73.12
